Time;durP1;ratioP1;P1;durP2;ratioP2;P2;SDS_P1;SDS_P2;PMS_P1;PMS_P2;Temp;Humidity;BMP_temperature;BMP_pressure;BME280_temperature;BME280_humidity;BME280_pressure;Samples;Min_cycle;Max_cycle;Signal;HPM_P1;HPM_P2
2022/09/03 00:01:02;;;;;;;;;;;17.30;99.90;;;;;;5091464;28;20383;-75
2022/09/03 00:03:30;;;;;;;;;;;17.30;99.90;;;;;;5092101;28;19922;-75
2022/09/03 00:06:16;;;;;;;;;;;17.30;99.90;;;;;;5091465;28;19915;-75
2022/09/03 00:08:48;;;;;;;;;;;17.20;99.90;;;;;;5091783;28;19965;-74
2022/09/03 00:11:13;;;;;;;;;;;17.20;99.90;;;;;;5092543;28;19958;-74
2022/09/03 00:13:51;;;;;;;;;;;17.20;99.90;;;;;;5091756;28;20360;-75
2022/09/03 00:16:20;;;;;;;;;;;17.20;99.90;;;;;;5092520;28;19915;-75
2022/09/03 00:18:51;;;;;;;;;;;17.20;99.90;;;;;;5091885;28;20334;-74
2022/09/03 00:21:36;;;;;;;;;;;17.10;99.90;;;;;;5091191;28;19908;-74
2022/09/03 00:24:03;;;;;;;;;;;17.10;99.90;;;;;;5092174;28;19916;-74
2022/09/03 00:26:32;;;;;;;;;;;17.10;99.90;;;;;;5093405;28;19948;-75
2022/09/03 00:28:58;;;;;;;;;;;17.10;99.90;;;;;;5095499;28;19966;-75
2022/09/03 00:31:37;;;;;;;;;;;17.00;99.90;;;;;;5096133;28;19960;-74
2022/09/03 00:34:06;;;;;;;;;;;17.00;99.90;;;;;;5095464;28;19908;-75
2022/09/03 00:36:42;;;;;;;;;;;17.00;99.90;;;;;;5096051;28;19920;-74
2022/09/03 00:39:12;;;;;;;;;;;17.00;99.90;;;;;;5094681;28;20049;-75
2022/09/03 00:41:53;;;;;;;;;;;17.00;99.90;;;;;;5095800;28;19915;-75
2022/09/03 00:44:20;;;;;;;;;;;17.00;99.90;;;;;;5094354;28;19998;-75
2022/09/03 00:46:51;;;;;;;;;;;17.00;99.90;;;;;;5095119;28;20349;-74
2022/09/03 00:49:33;;;;;;;;;;;16.90;99.90;;;;;;5095490;28;19919;-74
2022/09/03 00:51:59;;;;;;;;;;;16.90;99.90;;;;;;5094903;28;19919;-74
2022/09/03 00:54:31;;;;;;;;;;;16.90;99.90;;;;;;5095275;28;20297;-73
2022/09/03 00:57:24;;;;;;;;;;;16.90;99.90;;;;;;5093709;28;19955;-74
2022/09/03 01:00:07;;;;;;;;;;;16.80;99.90;;;;;;5094987;28;19908;-74
2022/09/03 01:02:45;;;;;;;;;;;16.80;99.90;;;;;;5095430;28;19908;-74
2022/09/03 01:05:21;;;;;;;;;;;16.70;99.90;;;;;;5095116;28;19912;-74
2022/09/03 01:08:05;;;;;;;;;;;16.60;99.90;;;;;;5094416;28;19920;-74
2022/09/03 01:10:53;;;;;;;;;;;16.60;99.90;;;;;;5093716;28;19916;-74
2022/09/03 01:13:38;;;;;;;;;;;16.50;99.90;;;;;;5094714;28;20392;-74
2022/09/03 01:16:06;;;;;;;;;;;16.40;99.90;;;;;;5094306;28;19905;-74
2022/09/03 01:18:45;;;;;;;;;;;16.40;99.90;;;;;;5094775;28;19962;-75
2022/09/03 01:21:41;;;;;;;;;;;16.40;99.90;;;;;;5095103;28;19908;-75
2022/09/03 01:24:16;;;;;;;;;;;16.40;99.90;;;;;;5094504;28;19908;-75
2022/09/03 01:27:00;;;;;;;;;;;16.40;99.90;;;;;;5094892;28;19912;-75
2022/09/03 01:29:42;;;;;;;;;;;16.40;99.90;;;;;;5094530;28;19980;-75
2022/09/03 01:32:18;;;;;;;;;;;16.40;99.90;;;;;;5094369;28;20434;-75
2022/09/03 01:34:52;;;;;;;;;;;16.40;99.90;;;;;;5094503;28;20379;-75
2022/09/03 01:37:36;;;;;;;;;;;16.50;99.90;;;;;;5094950;28;19943;-75
2022/09/03 01:40:24;;;;;;;;;;;16.50;99.90;;;;;;5093587;28;19908;-75
2022/09/03 01:42:53;;;;;;;;;;;16.40;99.90;;;;;;5094308;28;19915;-75
2022/09/03 01:45:43;;;;;;;;;;;16.50;99.90;;;;;;5094194;28;19909;-75
2022/09/03 01:48:22;;;;;;;;;;;16.40;99.90;;;;;;5092073;28;19912;-75
2022/09/03 01:51:02;;;;;;;;;;;16.40;99.90;;;;;;5092746;28;19912;-76
2022/09/03 01:53:46;;;;;;;;;;;16.40;99.90;;;;;;5094376;28;19908;-75
2022/09/03 01:56:27;;;;;;;;;;;16.40;99.90;;;;;;5093086;28;19909;-75
2022/09/03 01:59:00;;;;;;;;;;;16.40;99.90;;;;;;5094085;28;20006;-75
2022/09/03 02:01:32;;;;;;;;;;;16.40;99.90;;;;;;5092892;28;20303;-75
2022/09/03 02:03:58;;;;;;;;;;;16.30;99.90;;;;;;5094027;28;19909;-74
2022/09/03 02:06:25;;;;;;;;;;;16.20;99.90;;;;;;5094087;28;19908;-75
2022/09/03 02:08:51;;;;;;;;;;;16.20;99.90;;;;;;5093514;28;19912;-75
2022/09/03 02:11:17;;;;;;;;;;;16.10;99.90;;;;;;5094025;28;19998;-75
2022/09/03 02:13:53;;;;;;;;;;;16.10;99.90;;;;;;5094098;28;19912;-75
2022/09/03 02:16:19;;;;;;;;;;;16.00;99.90;;;;;;5093919;28;20309;-76
2022/09/03 02:18:47;;;;;;;;;;;16.00;99.90;;;;;;5094182;28;20338;-76
2022/09/03 02:21:15;;;;;;;;;;;15.90;99.90;;;;;;5093446;28;19915;-75
2022/09/03 02:23:41;;;;;;;;;;;15.90;99.90;;;;;;5093862;28;19912;-75
2022/09/03 02:26:08;;;;;;;;;;;15.80;99.90;;;;;;5093212;28;19994;-75
2022/09/03 02:28:34;;;;;;;;;;;15.80;99.90;;;;;;5092385;28;20349;-74
2022/09/03 02:31:00;;;;;;;;;;;15.70;99.90;;;;;;5093239;28;19916;-75
2022/09/03 02:33:26;;;;;;;;;;;15.70;99.90;;;;;;5093652;28;19908;-75
2022/09/03 02:35:52;;;;;;;;;;;15.70;99.90;;;;;;5092744;28;19920;-75
2022/09/03 02:38:19;;;;;;;;;;;15.60;99.90;;;;;;5093568;28;19908;-75
2022/09/03 02:40:45;;;;;;;;;;;15.60;99.90;;;;;;5093499;28;19930;-74
2022/09/03 02:43:14;;;;;;;;;;;15.60;99.90;;;;;;5092983;28;20377;-74
2022/09/03 02:45:46;;;;;;;;;;;15.50;99.90;;;;;;5093345;28;20007;-75
2022/09/03 02:48:12;;;;;;;;;;;15.50;99.90;;;;;;5092441;28;19918;-75
2022/09/03 02:50:41;;;;;;;;;;;15.50;99.90;;;;;;5093009;28;20277;-75
2022/09/03 02:53:07;;;;;;;;;;;15.50;99.90;;;;;;5092832;28;19908;-75
2022/09/03 02:55:33;;;;;;;;;;;15.50;99.90;;;;;;5093268;28;19908;-75
2022/09/03 02:57:59;;;;;;;;;;;15.50;99.90;;;;;;5092432;28;20006;-75
2022/09/03 03:00:25;;;;;;;;;;;15.50;99.90;;;;;;5093318;28;19908;-75
2022/09/03 03:02:51;;;;;;;;;;;15.50;99.90;;;;;;5092895;28;20319;-75
2022/09/03 03:05:22;;;;;;;;;;;15.50;99.90;;;;;;5093020;28;19970;-75
2022/09/03 03:07:48;;;;;;;;;;;15.40;99.90;;;;;;5092801;28;19912;-75
2022/09/03 03:10:14;;;;;;;;;;;15.40;99.90;;;;;;5092599;28;20006;-75
2022/09/03 03:12:39;;;;;;;;;;;15.30;99.90;;;;;;5091662;28;19908;-75
2022/09/03 03:15:05;;;;;;;;;;;15.40;99.90;;;;;;5092390;28;19908;-75
2022/09/03 03:17:31;;;;;;;;;;;15.50;99.90;;;;;;5093042;28;19916;-75
2022/09/03 03:19:57;;;;;;;;;;;15.50;99.90;;;;;;5092433;28;19915;-75
2022/09/03 03:22:22;;;;;;;;;;;15.50;99.90;;;;;;5092609;28;19951;-75
2022/09/03 03:24:49;;;;;;;;;;;15.50;99.90;;;;;;5092758;28;19915;-75
2022/09/03 03:27:15;;;;;;;;;;;15.50;99.90;;;;;;5092381;28;19908;-75
2022/09/03 03:29:40;;;;;;;;;;;15.50;99.90;;;;;;5092735;28;19962;-75
2022/09/03 03:32:06;;;;;;;;;;;15.50;99.90;;;;;;5092346;28;19965;-75
2022/09/03 03:34:31;;;;;;;;;;;15.50;99.90;;;;;;5093069;28;19940;-75
2022/09/03 03:36:58;;;;;;;;;;;15.50;99.90;;;;;;5092452;28;20369;-75
2022/09/03 03:39:24;;;;;;;;;;;15.50;99.90;;;;;;5092457;28;19908;-78
2022/09/03 03:41:51;;;;;;;;;;;15.50;99.90;;;;;;5091680;28;19912;-78
2022/09/03 03:44:19;;;;;;;;;;;15.50;99.90;;;;;;5091024;28;20238;-79
2022/09/03 03:46:45;;;;;;;;;;;15.40;99.90;;;;;;5092612;28;19932;-76
2022/09/03 03:49:11;;;;;;;;;;;15.30;99.90;;;;;;5092096;28;19916;-77
2022/09/03 03:51:37;;;;;;;;;;;15.30;99.90;;;;;;5092939;28;19912;-76
2022/09/03 03:54:02;;;;;;;;;;;15.30;99.90;;;;;;5090928;28;19997;-76
2022/09/03 03:56:28;;;;;;;;;;;15.30;99.90;;;;;;5092379;28;19961;-76
2022/09/03 03:58:54;;;;;;;;;;;15.30;99.90;;;;;;5092495;28;19915;-76
2022/09/03 04:01:21;;;;;;;;;;;15.30;99.90;;;;;;5092948;28;20303;-76
2022/09/03 04:03:47;;;;;;;;;;;15.30;99.90;;;;;;5096560;28;19908;-76
2022/09/03 04:06:14;;;;;;;;;;;15.20;99.90;;;;;;5095945;28;20365;-75
2022/09/03 04:08:40;;;;;;;;;;;15.20;99.90;;;;;;5094674;28;19913;-76
2022/09/03 04:11:08;;;;;;;;;;;15.20;99.90;;;;;;5094608;28;19912;-76
2022/09/03 04:13:35;;;;;;;;;;;15.20;99.90;;;;;;5096294;28;20361;-75
2022/09/03 04:16:01;;;;;;;;;;;15.20;99.90;;;;;;5094237;28;20378;-75
2022/09/03 04:18:27;;;;;;;;;;;15.20;99.90;;;;;;5096287;28;20014;-75
2022/09/03 04:20:57;;;;;;;;;;;15.20;99.90;;;;;;5096295;28;19951;-76
2022/09/03 04:23:23;;;;;;;;;;;15.20;99.90;;;;;;5096016;28;20426;-76
2022/09/03 04:25:52;;;;;;;;;;;15.20;99.90;;;;;;5096418;28;19909;-76
2022/09/03 04:28:17;;;;;;;;;;;15.20;99.90;;;;;;5095512;28;19912;-76
2022/09/03 04:30:43;;;;;;;;;;;15.20;99.90;;;;;;5096082;28;19919;-76
2022/09/03 04:33:08;;;;;;;;;;;15.20;99.90;;;;;;5095549;28;19914;-76
2022/09/03 04:35:34;;;;;;;;;;;15.20;99.90;;;;;;5096088;28;19924;-76
2022/09/03 04:37:59;;;;;;;;;;;15.20;99.90;;;;;;5095349;28;20361;-76
2022/09/03 04:40:25;;;;;;;;;;;15.20;99.90;;;;;;5095595;28;19944;-76
2022/09/03 04:42:55;;;;;;;;;;;15.10;99.90;;;;;;5095764;28;19908;-76
2022/09/03 04:45:20;;;;;;;;;;;15.10;99.90;;;;;;5095260;28;19994;-74
2022/09/03 04:47:55;;;;;;;;;;;15.00;99.90;;;;;;5095480;28;19942;-76
2022/09/03 04:50:22;;;;;;;;;;;15.00;99.90;;;;;;5093841;28;19938;-75
2022/09/03 04:52:47;;;;;;;;;;;15.00;99.90;;;;;;5095251;28;19909;-75
2022/09/03 04:55:13;;;;;;;;;;;14.90;99.90;;;;;;5095412;28;19915;-75
2022/09/03 04:57:41;;;;;;;;;;;14.80;99.90;;;;;;5095515;28;19912;-75
2022/09/03 05:00:10;;;;;;;;;;;14.80;99.90;;;;;;5094803;28;19969;-76
2022/09/03 05:02:35;;;;;;;;;;;14.80;99.90;;;;;;5095122;28;19916;-76
2022/09/03 05:05:01;;;;;;;;;;;14.70;99.90;;;;;;5094479;28;20269;-75
2022/09/03 05:07:27;;;;;;;;;;;14.70;99.90;;;;;;5093835;28;19999;-74
2022/09/03 05:09:53;;;;;;;;;;;14.60;99.90;;;;;;5093543;28;19963;-75
2022/09/03 05:12:19;;;;;;;;;;;14.50;99.90;;;;;;5092787;28;19999;-75
2022/09/03 05:14:45;;;;;;;;;;;14.60;99.90;;;;;;5093990;28;19908;-76
2022/09/03 05:17:10;;;;;;;;;;;14.50;99.90;;;;;;5093878;28;19972;-74
2022/09/03 05:19:36;;;;;;;;;;;14.50;99.90;;;;;;5094761;28;19909;-75
2022/09/03 05:22:02;;;;;;;;;;;14.50;99.90;;;;;;5092797;28;20382;-75
2022/09/03 05:24:27;;;;;;;;;;;14.30;99.90;;;;;;5094973;28;19950;-75
2022/09/03 05:26:54;;;;;;;;;;;14.30;99.90;;;;;;5094555;28;20341;-76
2022/09/03 05:29:20;;;;;;;;;;;14.20;99.90;;;;;;5094267;28;19915;-75
2022/09/03 05:31:46;;;;;;;;;;;14.20;99.90;;;;;;5094577;28;19916;-76
2022/09/03 05:34:12;;;;;;;;;;;14.10;99.90;;;;;;5094221;28;19958;-75
2022/09/03 05:36:37;;;;;;;;;;;14.10;99.90;;;;;;5094685;28;20261;-76
2022/09/03 05:39:04;;;;;;;;;;;14.20;99.90;;;;;;5092883;28;19908;-76
2022/09/03 05:41:31;;;;;;;;;;;14.10;99.90;;;;;;5094400;28;19908;-77
2022/09/03 05:44:00;;;;;;;;;;;14.20;99.90;;;;;;5094524;28;19908;-76
2022/09/03 05:46:30;;;;;;;;;;;14.10;99.90;;;;;;5094010;28;19912;-76
2022/09/03 05:48:59;;;;;;;;;;;14.10;99.90;;;;;;5094488;28;19957;-76
2022/09/03 05:51:25;;;;;;;;;;;14.10;99.90;;;;;;5093881;28;19970;-76
2022/09/03 05:53:52;;;;;;;;;;;14.20;99.90;;;;;;5094170;28;20288;-75
2022/09/03 05:56:19;;;;;;;;;;;14.20;99.90;;;;;;5093609;28;19908;-75
2022/09/03 05:58:45;;;;;;;;;;;14.10;99.90;;;;;;5094278;28;19908;-76
2022/09/03 06:01:18;;;;;;;;;;;14.10;99.90;;;;;;5093370;28;19965;-76
2022/09/03 06:03:45;;;;;;;;;;;14.00;99.90;;;;;;5092849;28;19908;-76
2022/09/03 06:06:12;;;;;;;;;;;14.00;99.90;;;;;;5093622;28;20002;-76
2022/09/03 06:08:38;;;;;;;;;;;13.90;99.90;;;;;;5094435;28;20260;-76
2022/09/03 06:11:05;;;;;;;;;;;14.00;99.90;;;;;;5093584;28;19912;-76
2022/09/03 06:13:31;;;;;;;;;;;14.00;99.90;;;;;;5093850;28;19912;-76
2022/09/03 06:16:02;;;;;;;;;;;13.90;99.90;;;;;;5094084;28;20003;-75
2022/09/03 06:18:28;;;;;;;;;;;14.00;99.90;;;;;;5093742;28;19916;-76
2022/09/03 06:20:58;;;;;;;;;;;14.00;99.90;;;;;;5094192;28;19908;-77
2022/09/03 06:23:25;;;;;;;;;;;13.90;99.90;;;;;;5093284;28;19904;-77
2022/09/03 06:26:08;;;;;;;;;;;13.90;99.90;;;;;;5093229;28;19958;-77
2022/09/03 06:28:35;;;;;;;;;;;13.90;99.90;;;;;;5093700;28;19912;-76
2022/09/03 06:31:05;;;;;;;;;;;14.00;99.90;;;;;;5093629;28;19950;-77
2022/09/03 06:33:32;;;;;;;;;;;13.90;99.90;;;;;;5093788;28;19919;-78
2022/09/03 06:35:58;;;;;;;;;;;13.90;99.90;;;;;;5093633;28;19926;-79
2022/09/03 06:38:27;;;;;;;;;;;13.80;99.90;;;;;;5092957;28;19912;-77
2022/09/03 06:40:57;;;;;;;;;;;13.80;99.90;;;;;;5092329;28;19994;-77
2022/09/03 06:43:23;;;;;;;;;;;13.80;99.90;;;;;;5092780;28;20361;-78
2022/09/03 06:45:56;;;;;;;;;;;13.80;99.90;;;;;;5093322;28;19927;-78
2022/09/03 06:48:22;;;;;;;;;;;13.80;99.90;;;;;;5092526;28;19912;-79
2022/09/03 06:50:54;;;;;;;;;;;13.80;99.90;;;;;;5092995;28;19965;-78
2022/09/03 06:53:21;;;;;;;;;;;13.80;99.90;;;;;;5091399;28;20383;-79
2022/09/03 06:55:57;;;;;;;;;;;13.80;99.90;;;;;;5093454;28;20002;-79
2022/09/03 06:58:23;;;;;;;;;;;13.80;99.90;;;;;;5091549;28;19908;-79
2022/09/03 07:00:51;;;;;;;;;;;13.70;99.90;;;;;;5091518;28;19912;-80
2022/09/03 07:03:17;;;;;;;;;;;13.70;99.90;;;;;;5092624;28;20485;-80
2022/09/03 07:05:43;;;;;;;;;;;13.70;99.90;;;;;;5093234;28;19908;-79
2022/09/03 07:08:09;;;;;;;;;;;13.70;99.90;;;;;;5091041;28;19976;-78
2022/09/03 07:10:36;;;;;;;;;;;13.80;99.90;;;;;;5091986;28;20321;-79
2022/09/03 07:13:02;;;;;;;;;;;13.80;99.90;;;;;;5091866;28;19946;-80
2022/09/03 07:15:27;;;;;;;;;;;13.70;99.90;;;;;;5091123;28;19956;-81
2022/09/03 07:17:53;;;;;;;;;;;13.70;99.90;;;;;;5092776;28;19915;-82
2022/09/03 07:20:19;;;;;;;;;;;13.70;99.90;;;;;;5091980;28;19908;-81
2022/09/03 07:22:45;;;;;;;;;;;13.80;99.90;;;;;;5091771;28;19908;-80
2022/09/03 07:25:10;;;;;;;;;;;13.80;99.90;;;;;;5091236;28;20015;-80
2022/09/03 07:27:36;;;;;;;;;;;13.90;99.90;;;;;;5092868;28;19912;-81
2022/09/03 07:30:02;;;;;;;;;;;13.70;99.90;;;;;;5092626;28;19912;-83
2022/09/03 07:32:28;;;;;;;;;;;13.80;99.90;;;;;;5092375;28;20019;-81
2022/09/03 07:34:53;;;;;;;;;;;13.80;99.90;;;;;;5092783;28;19943;-83
2022/09/03 07:37:19;;;;;;;;;;;13.90;99.90;;;;;;5096359;28;19920;-84
2022/09/03 07:39:45;;;;;;;;;;;13.90;99.90;;;;;;5097251;28;19908;-84
2022/09/03 07:42:11;;;;;;;;;;;13.90;99.90;;;;;;5095264;28;19966;-80
2022/09/03 07:44:36;;;;;;;;;;;13.90;99.90;;;;;;5095586;28;19912;-83
2022/09/03 07:47:02;;;;;;;;;;;14.00;99.90;;;;;;5096988;28;19909;-84
2022/09/03 07:49:28;;;;;;;;;;;14.00;99.90;;;;;;5094446;28;19916;-83
2022/09/03 07:51:53;;;;;;;;;;;14.00;99.90;;;;;;5095959;28;19912;-83
2022/09/03 07:54:20;;;;;;;;;;;14.10;99.90;;;;;;5095867;28;20422;-82
2022/09/03 07:56:46;;;;;;;;;;;14.10;99.90;;;;;;5096438;28;19908;-84
2022/09/03 07:59:11;;;;;;;;;;;14.10;99.90;;;;;;5094838;28;19915;-80
2022/09/03 08:01:37;;;;;;;;;;;14.10;99.90;;;;;;5096502;28;19952;-82
2022/09/03 08:04:05;;;;;;;;;;;14.10;99.90;;;;;;5096199;28;19912;-81
2022/09/03 08:06:31;;;;;;;;;;;14.10;99.90;;;;;;5094306;28;20663;-81
2022/09/03 08:08:59;;;;;;;;;;;14.00;99.90;;;;;;5092004;28;19912;-82
2022/09/03 08:11:26;;;;;;;;;;;13.90;99.90;;;;;;5095814;28;20348;-83
2022/09/03 08:14:00;;;;;;;;;;;14.00;99.90;;;;;;5097283;28;19915;-87
2022/09/03 08:16:26;;;;;;;;;;;14.00;99.90;;;;;;5094550;28;20315;-85
2022/09/03 08:18:52;;;;;;;;;;;14.00;99.90;;;;;;5095313;28;19908;-84
2022/09/03 08:21:18;;;;;;;;;;;14.00;99.90;;;;;;5096271;28;19908;-86
2022/09/03 08:23:45;;;;;;;;;;;14.00;99.90;;;;;;5097696;28;19936;-84
2022/09/03 08:26:11;;;;;;;;;;;14.00;99.90;;;;;;5098271;28;19912;-85
2022/09/03 08:28:37;;;;;;;;;;;14.00;99.90;;;;;;5097992;28;19912;-82
2022/09/03 08:31:05;;;;;;;;;;;14.00;99.90;;;;;;5096306;28;19912;-81
2022/09/03 08:33:37;;;;;;;;;;;14.00;99.90;;;;;;5094961;28;19916;-81
2022/09/03 08:36:03;;;;;;;;;;;14.10;99.90;;;;;;5095282;28;19924;-81
2022/09/03 08:38:30;;;;;;;;;;;14.20;99.90;;;;;;5094943;28;19950;-81
2022/09/03 08:41:02;;;;;;;;;;;14.20;99.90;;;;;;5095154;28;20365;-81
2022/09/03 08:43:27;;;;;;;;;;;14.20;99.90;;;;;;5095497;28;20368;-83
2022/09/03 08:45:53;;;;;;;;;;;14.30;99.90;;;;;;5095330;28;19912;-84
2022/09/03 08:48:20;;;;;;;;;;;14.20;99.90;;;;;;5095201;28;19926;-85
2022/09/03 08:50:50;;;;;;;;;;;14.30;99.90;;;;;;5096685;28;19943;-91
2022/09/03 08:53:28;;;;;;;;;;;14.40;99.90;;;;;;5099696;28;19931;-85
2022/09/03 08:56:02;;;;;;;;;;;14.40;99.90;;;;;;5099269;28;19915;-90
2022/09/03 08:58:31;;;;;;;;;;;14.40;99.90;;;;;;5098643;28;20328;-90
2022/09/03 09:01:03;;;;;;;;;;;14.40;99.90;;;;;;5094469;28;19915;-87
2022/09/03 09:03:47;;;;;;;;;;;14.50;99.90;;;;;;5098323;28;19912;-85
2022/09/03 09:06:15;;;;;;;;;;;14.40;99.90;;;;;;5096326;28;20280;-85
2022/09/03 09:08:54;;;;;;;;;;;14.30;99.90;;;;;;5095833;28;19923;-85
2022/09/03 09:11:44;;;;;;;;;;;14.30;99.90;;;;;;5092512;28;20357;-83
2022/09/03 09:14:19;;;;;;;;;;;14.40;99.90;;;;;;5095277;28;19912;-85
2022/09/03 09:16:45;;;;;;;;;;;14.40;99.90;;;;;;5094755;28;19916;-83
2022/09/03 09:19:16;;;;;;;;;;;14.50;99.90;;;;;;5094852;28;19912;-80
2022/09/03 09:21:45;;;;;;;;;;;14.40;99.90;;;;;;5093626;28;19994;-78
2022/09/03 09:24:22;;;;;;;;;;;14.30;99.90;;;;;;5094761;28;19998;-81
2022/09/03 09:26:48;;;;;;;;;;;14.40;99.90;;;;;;5094369;28;19908;-81
2022/09/03 09:29:14;;;;;;;;;;;14.40;99.90;;;;;;5093871;28;19912;-79
2022/09/03 09:31:43;;;;;;;;;;;14.40;99.90;;;;;;5093759;28;20387;-79
2022/09/03 09:34:09;;;;;;;;;;;14.50;99.90;;;;;;5094086;28;19934;-80
2022/09/03 09:36:41;;;;;;;;;;;14.50;99.90;;;;;;5092914;28;19928;-79
2022/09/03 09:39:10;;;;;;;;;;;14.40;99.90;;;;;;5092618;28;19912;-79
2022/09/03 09:41:36;;;;;;;;;;;14.50;99.90;;;;;;5090625;28;20434;-78
2022/09/03 09:44:04;;;;;;;;;;;14.60;99.90;;;;;;5093538;28;19908;-78
2022/09/03 09:46:34;;;;;;;;;;;14.70;99.90;;;;;;5091869;28;20250;-78
2022/09/03 09:49:00;;;;;;;;;;;14.70;99.90;;;;;;5092203;28;19923;-78
2022/09/03 09:51:32;;;;;;;;;;;14.60;99.90;;;;;;5092669;28;19912;-78
2022/09/03 09:54:01;;;;;;;;;;;14.50;99.90;;;;;;5093389;28;19908;-77
2022/09/03 09:56:26;;;;;;;;;;;14.40;99.90;;;;;;5091347;28;19991;-78
2022/09/03 09:59:06;;;;;;;;;;;14.50;99.90;;;;;;5091495;28;20455;-77
2022/09/03 10:01:32;;;;;;;;;;;14.60;99.90;;;;;;5092698;28;19912;-78
2022/09/03 10:03:59;;;;;;;;;;;14.50;99.90;;;;;;5092387;28;19908;-78
2022/09/03 10:09:11;;;;;;;;;;;14.40;99.90;;;;;;5092648;28;19919;-77
2022/09/03 10:11:40;;;;;;;;;;;14.50;99.90;;;;;;5091093;28;19912;-77
2022/09/03 10:14:34;;;;;;;;;;;14.40;99.90;;;;;;5093107;28;19909;-78
2022/09/03 10:17:06;;;;;;;;;;;14.50;99.90;;;;;;5091685;28;19920;-78
2022/09/03 10:19:40;;;;;;;;;;;14.40;99.90;;;;;;5092748;28;19908;-78
2022/09/03 10:22:11;;;;;;;;;;;14.40;99.90;;;;;;5093531;28;19991;-78
2022/09/03 10:24:38;;;;;;;;;;;14.40;99.90;;;;;;5092926;28;19912;-78
2022/09/03 10:27:09;;;;;;;;;;;14.40;99.90;;;;;;5093168;28;19963;-78
2022/09/03 10:29:39;;;;;;;;;;;14.50;99.90;;;;;;5092369;28;19912;-79
2022/09/03 10:32:25;;;;;;;;;;;14.50;99.90;;;;;;5092609;28;19955;-80
2022/09/03 10:35:11;;;;;;;;;;;14.60;99.90;;;;;;5118742;27;19938;-80
2022/09/03 10:37:39;;;;;;;;;;;14.50;99.90;;;;;;5089656;28;20436;-79
2022/09/03 10:40:11;;;;;;;;;;;14.50;99.90;;;;;;5092578;28;19915;-79
2022/09/03 10:42:38;;;;;;;;;;;14.60;99.90;;;;;;5092047;28;19973;-78
2022/09/03 10:45:04;;;;;;;;;;;14.70;99.90;;;;;;5092660;28;19916;-79
2022/09/03 10:47:59;;;;;;;;;;;14.70;99.90;;;;;;5083809;28;19908;-79
2022/09/03 10:50:30;;;;;;;;;;;14.60;99.90;;;;;;5077720;28;20389;-79
2022/09/03 10:53:19;;;;;;;;;;;14.50;99.90;;;;;;5092809;28;20004;-79
2022/09/03 10:55:54;;;;;;;;;;;14.50;99.90;;;;;;5089368;28;20357;-77
2022/09/03 10:58:32;;;;;;;;;;;14.50;99.90;;;;;;5091667;28;19927;-77
2022/09/03 11:01:02;;;;;;;;;;;14.50;99.90;;;;;;5092170;28;19909;-77
2022/09/03 11:03:41;;;;;;;;;;;14.50;99.90;;;;;;5091073;28;20383;-77
2022/09/03 11:06:11;;;;;;;;;;;14.40;99.90;;;;;;5089885;28;20384;-77
2022/09/03 11:08:45;;;;;;;;;;;14.40;99.90;;;;;;5087932;28;20101;-76
2022/09/03 11:11:26;;;;;;;;;;;14.50;99.90;;;;;;5090901;28;20382;-77
2022/09/03 11:13:57;;;;;;;;;;;14.40;99.90;;;;;;5090182;28;19923;-77
2022/09/03 11:16:25;;;;;;;;;;;14.40;99.90;;;;;;5090612;28;19908;-77
2022/09/03 11:18:57;;;;;;;;;;;14.50;99.90;;;;;;5092373;28;19919;-77
2022/09/03 11:21:25;;;;;;;;;;;14.40;99.90;;;;;;5091523;28;19912;-77
2022/09/03 11:23:52;;;;;;;;;;;14.40;99.90;;;;;;5091910;28;19915;-79
2022/09/03 11:26:19;;;;;;;;;;;14.50;99.90;;;;;;5092073;28;19908;-79
2022/09/03 11:28:51;;;;;;;;;;;14.50;99.90;;;;;;5092817;28;19919;-82
2022/09/03 11:31:19;;;;;;;;;;;14.50;99.90;;;;;;5092413;28;19919;-85
2022/09/03 11:33:48;;;;;;;;;;;14.40;99.90;;;;;;5093887;28;20000;-85
2022/09/03 11:36:27;;;;;;;;;;;14.40;99.90;;;;;;5096679;28;19924;-91
2022/09/03 11:38:53;;;;;;;;;;;14.30;99.90;;;;;;5093643;28;19915;-88
2022/09/03 11:41:21;;;;;;;;;;;14.20;99.90;;;;;;5093373;28;19908;-87
2022/09/03 11:43:47;;;;;;;;;;;14.30;99.90;;;;;;5095933;28;19908;-88
2022/09/03 11:46:13;;;;;;;;;;;14.30;99.90;;;;;;5095269;28;19947;-90
2022/09/03 11:48:43;;;;;;;;;;;14.30;99.90;;;;;;5096241;28;19912;-86
2022/09/03 11:51:17;;;;;;;;;;;14.30;99.90;;;;;;5095750;28;19912;-90
2022/09/03 11:53:52;;;;;;;;;;;14.20;99.90;;;;;;5094711;28;19916;-87
2022/09/03 11:56:18;;;;;;;;;;;14.30;99.90;;;;;;5094461;28;20268;-86
2022/09/03 11:58:44;;;;;;;;;;;14.30;99.90;;;;;;5096256;28;19909;-89
2022/09/03 12:01:11;;;;;;;;;;;14.30;99.90;;;;;;5099894;28;19915;-87
2022/09/03 12:03:52;;;;;;;;;;;14.40;99.90;;;;;;5099042;28;19908;-91
2022/09/03 12:06:18;;;;;;;;;;;14.30;99.90;;;;;;5099727;28;19912;-89
2022/09/03 12:08:45;;;;;;;;;;;14.40;99.90;;;;;;5094710;28;20010;-87
2022/09/03 12:11:38;;;;;;;;;;;14.30;99.90;;;;;;5094389;28;19916;-83
2022/09/03 12:14:22;;;;;;;;;;;14.40;99.90;;;;;;5086572;28;19977;-81
2022/09/03 12:16:48;;;;;;;;;;;14.50;99.90;;;;;;5090610;28;19944;-81
2022/09/03 12:19:26;;;;;;;;;;;14.40;99.90;;;;;;5092388;28;19959;-82
2022/09/03 12:21:54;;;;;;;;;;;14.40;99.90;;;;;;5093152;28;19908;-82
2022/09/03 12:24:22;;;;;;;;;;;14.50;99.90;;;;;;5096537;28;19930;-84
2022/09/03 12:26:47;;;;;;;;;;;14.50;99.90;;;;;;5095714;28;19908;-83
2022/09/03 12:29:21;;;;;;;;;;;14.50;99.90;;;;;;5096864;28;20360;-82
2022/09/03 12:31:49;;;;;;;;;;;14.40;99.90;;;;;;5095460;28;19951;-79
2022/09/03 12:34:15;;;;;;;;;;;14.50;99.90;;;;;;5095886;28;20349;-79
2022/09/03 12:36:43;;;;;;;;;;;14.50;99.90;;;;;;5093052;28;20346;-78
2022/09/03 12:39:08;;;;;;;;;;;14.50;99.90;;;;;;5094956;28;20380;-79
2022/09/03 12:42:03;;;;;;;;;;;14.50;99.90;;;;;;5110067;27;19918;-80
2022/09/03 12:44:31;;;;;;;;;;;14.60;99.90;;;;;;5110214;28;20387;-80
2022/09/03 12:47:05;;;;;;;;;;;14.50;99.90;;;;;;5110635;28;20014;-80
2022/09/03 12:49:35;;;;;;;;;;;14.50;99.90;;;;;;5110029;28;19908;-78
2022/09/03 12:52:03;;;;;;;;;;;14.50;99.90;;;;;;5110596;28;19916;-79
2022/09/03 12:54:29;;;;;;;;;;;14.60;99.90;;;;;;5109846;28;20015;-80
2022/09/03 12:56:58;;;;;;;;;;;14.60;99.90;;;;;;5112065;28;19944;-86
2022/09/03 12:59:25;;;;;;;;;;;14.50;99.90;;;;;;5114721;28;19908;-87
2022/09/03 13:01:53;;;;;;;;;;;14.50;99.90;;;;;;5118924;28;20003;-90
2022/09/03 13:04:23;;;;;;;;;;;14.60;99.90;;;;;;5118589;28;19908;-88
2022/09/03 13:06:55;;;;;;;;;;;14.60;99.90;;;;;;5116651;28;19914;-90
2022/09/03 13:09:25;;;;;;;;;;;14.60;99.90;;;;;;5113071;28;19915;-87
2022/09/03 13:11:54;;;;;;;;;;;14.60;99.90;;;;;;5112124;28;19912;-86
2022/09/03 13:14:20;;;;;;;;;;;14.70;99.90;;;;;;5114241;28;19908;-87
2022/09/03 13:16:45;;;;;;;;;;;14.70;99.90;;;;;;5115081;28;19972;-92
2022/09/03 13:19:17;;;;;;;;;;;14.80;99.90;;;;;;5109819;28;19915;-90
2022/09/03 13:22:05;;;;;;;;;;;14.80;99.90;;;;;;5100147;28;19927;-88
2022/09/03 13:24:40;;;;;;;;;;;14.80;99.90;;;;;;5101650;28;19912;-82
2022/09/03 13:27:20;;;;;;;;;;;14.90;99.90;;;;;;5109877;28;19908;-80
2022/09/03 13:30:22;;;;;;;;;;;14.90;99.90;;;;;;5108105;28;19947;-79
2022/09/03 13:33:06;;;;;;;;;;;15.00;99.90;;;;;;5086336;28;20633;-79
2022/09/03 13:35:34;;;;;;;;;;;15.00;99.90;;;;;;5106982;28;19916;-78
2022/09/03 13:38:00;;;;;;;;;;;15.10;99.90;;;;;;5109707;28;20319;-79
2022/09/03 13:40:48;;;;;;;;;;;15.10;99.90;;;;;;5109417;28;19925;-79
2022/09/03 13:43:24;;;;;;;;;;;15.20;99.90;;;;;;5109377;28;20361;-79
2022/09/03 13:45:54;;;;;;;;;;;15.20;99.90;;;;;;5109292;28;19994;-78
2022/09/03 13:51:14;;;;;;;;;;;15.40;99.90;;;;;;5107441;28;19914;-78
2022/09/03 13:53:48;;;;;;;;;;;15.40;99.90;;;;;;5095238;28;19908;-77
2022/09/03 13:56:20;;;;;;;;;;;15.50;99.90;;;;;;5096060;28;19930;-77
2022/09/03 13:58:48;;;;;;;;;;;15.50;99.90;;;;;;5095238;28;19908;-77
2022/09/03 14:01:21;;;;;;;;;;;15.60;99.90;;;;;;5094346;28;19919;-81
2022/09/03 14:03:49;;;;;;;;;;;15.50;99.90;;;;;;5095444;28;19912;-83
2022/09/03 14:06:33;;;;;;;;;;;15.60;99.90;;;;;;5096116;28;19908;-82
2022/09/03 14:09:05;;;;;;;;;;;15.50;99.90;;;;;;5095583;28;19915;-79
2022/09/03 14:11:30;;;;;;;;;;;15.60;99.90;;;;;;5093822;28;20262;-77
2022/09/03 14:13:56;;;;;;;;;;;15.60;99.90;;;;;;5095331;28;19915;-79
2022/09/03 14:16:40;;;;;;;;;;;15.50;99.90;;;;;;5095131;28;20314;-78
2022/09/03 14:19:11;;;;;;;;;;;15.60;99.90;;;;;;5095140;28;19909;-79
2022/09/03 14:21:57;;;;;;;;;;;15.60;99.90;;;;;;5094681;28;19919;-78
2022/09/03 14:24:28;;;;;;;;;;;15.60;99.90;;;;;;5095021;28;19959;-78
2022/09/03 14:26:55;;;;;;;;;;;15.70;99.90;;;;;;5093950;28;19915;-77
2022/09/03 14:29:28;;;;;;;;;;;15.70;99.90;;;;;;5094967;28;20164;-77
2022/09/03 14:32:12;;;;;;;;;;;15.70;99.90;;;;;;5094350;28;19908;-76
2022/09/03 14:34:52;;;;;;;;;;;15.70;99.90;;;;;;5093075;28;19923;-76
2022/09/03 14:37:29;;;;;;;;;;;15.70;99.90;;;;;;5094892;28;19914;-77
2022/09/03 14:39:58;;;;;;;;;;;15.70;99.90;;;;;;5094050;28;20361;-77